Time;durP1;ratioP1;P1;durP2;ratioP2;P2;SDS_P1;SDS_P2;PMS_P1;PMS_P2;Temp;Humidity;BMP_temperature;BMP_pressure;BME280_temperature;BME280_humidity;BME280_pressure;Samples;Min_cycle;Max_cycle;Signal;HPM_P1;HPM_P2
2022/03/22 00:00:20;;;;;;;5.95;5.72;;;;;;;;;;5011197;28;20178;-60
2022/03/22 00:02:46;;;;;;;4.82;4.72;;;;;;;;;;5011421;28;20586;-60
2022/03/22 00:05:12;;;;;;;8.18;7.97;;;;;;;;;;5011631;28;20714;-60
2022/03/22 00:07:38;;;;;;;15.18;14.68;;;;;;;;;;5011801;28;20652;-59
2022/03/22 00:10:04;;;;;;;12.70;12.30;;;;;;;;;;5011494;28;20184;-60
2022/03/22 00:12:31;;;;;;;13.63;13.23;;;;;;;;;;5014661;28;21009;-59
2022/03/22 00:14:58;;;;;;;18.52;17.80;;;;;;;;;;5015278;28;20186;-61
2022/03/22 00:17:24;;;;;;;11.20;10.90;;;;;;;;;;5015546;28;20179;-60
2022/03/22 00:19:50;;;;;;;11.23;10.93;;;;;;;;;;5015194;28;20176;-60
2022/03/22 00:22:16;;;;;;;11.50;11.20;;;;;;;;;;5014921;28;20472;-61
2022/03/22 00:24:41;;;;;;;9.10;8.90;;;;;;;;;;5015046;28;20438;-61
2022/03/22 00:27:08;;;;;;;18.90;18.10;;;;;;;;;;5014920;28;20513;-60
2022/03/22 00:29:34;;;;;;;26.33;24.83;;;;;;;;;;5014928;28;20920;-61
2022/03/22 00:32:00;;;;;;;11.23;10.93;;;;;;;;;;5014644;28;20258;-59
2022/03/22 00:34:26;;;;;;;32.15;30.08;;;;;;;;;;5014702;28;20485;-60
2022/03/22 00:36:53;;;;;;;9.53;9.33;;;;;;;;;;5014897;28;20213;-60
2022/03/22 00:39:18;;;;;;;28.80;27.05;;;;;;;;;;5014851;28;20411;-59
2022/03/22 00:41:44;;;;;;;33.90;31.60;;;;;;;;;;5014437;28;20257;-60
2022/03/22 00:44:11;;;;;;;26.27;24.77;;;;;;;;;;5014940;28;20421;-61
2022/03/22 00:46:37;;;;;;;24.85;23.45;;;;;;;;;;5014731;28;20483;-60
2022/03/22 00:49:04;;;;;;;30.83;28.90;;;;;;;;;;5014642;28;20731;-60
2022/03/22 00:51:30;;;;;;;33.67;31.45;;;;;;;;;;5014313;28;20172;-61
2022/03/22 00:53:59;;;;;;;40.25;36.95;;;;;;;;;;5014360;28;20286;-59
2022/03/22 00:56:25;;;;;;;52.75;47.45;;;;;;;;;;5014383;28;20207;-60
2022/03/22 01:00:01;;;;;;;51.83;46.72;;;;;;;;;;5014446;28;20206;-61
2022/03/22 01:01:37;;;;;;;49.08;44.17;;;;;;;;;;5014000;28;20218;-60
2022/03/22 01:04:04;;;;;;;53.67;47.87;;;;;;;;;;5014327;28;20204;-60
2022/03/22 01:06:30;;;;;;;58.17;51.72;;;;;;;;;;5014455;28;20416;-60
2022/03/22 01:08:56;;;;;;;54.17;48.50;;;;;;;;;;5020338;28;20301;-60
2022/03/22 01:11:22;;;;;;;49.70;44.40;;;;;;;;;;5014222;28;20678;-60
2022/03/22 01:13:49;;;;;;;53.47;47.73;;;;;;;;;;5014051;28;21073;-56
2022/03/22 01:16:15;;;;;;;53.47;47.92;;;;;;;;;;5013992;28;20886;-58
2022/03/22 01:18:41;;;;;;;52.35;47.05;;;;;;;;;;5014152;28;20234;-55
2022/03/22 01:21:07;;;;;;;53.25;47.65;;;;;;;;;;5013768;28;20182;-58
2022/03/22 01:23:33;;;;;;;55.47;49.40;;;;;;;;;;5013522;28;20539;-58
2022/03/22 01:25:59;;;;;;;58.30;49.75;;;;;;;;;;5013916;28;20414;-60
2022/03/22 01:28:26;;;;;;;48.50;43.70;;;;;;;;;;5013931;28;20177;-60
2022/03/22 01:30:53;;;;;;;52.85;47.20;;;;;;;;;;5013646;28;20411;-58
2022/03/22 01:33:19;;;;;;;51.75;46.25;;;;;;;;;;5013589;28;20206;-58
2022/03/22 01:35:45;;;;;;;49.30;44.30;;;;;;;;;;5013735;28;20183;-59
2022/03/22 01:38:11;;;;;;;46.50;42.00;;;;;;;;;;5013564;28;20408;-59
2022/03/22 01:40:37;;;;;;;49.50;44.35;;;;;;;;;;5013494;28;20172;-59
2022/03/22 01:43:03;;;;;;;44.80;40.67;;;;;;;;;;5013693;28;20186;-57
2022/03/22 01:45:30;;;;;;;48.35;43.55;;;;;;;;;;5013420;28;20206;-59
2022/03/22 01:48:04;;;;;;;24.42;23.13;;;;;;;;;;5013467;28;20175;-59
2022/03/22 01:50:30;;;;;;;46.53;41.97;;;;;;;;;;5013108;28;20253;-59
2022/03/22 01:52:57;;;;;;;49.97;44.70;;;;;;;;;;5013389;28;20677;-60
2022/03/22 01:55:24;;;;;;;52.72;44.53;;;;;;;;;;5013377;28;20196;-60
2022/03/22 01:57:50;;;;;;;45.28;40.97;;;;;;;;;;5013453;28;20172;-60
2022/03/22 02:00:17;;;;;;;52.47;47.10;;;;;;;;;;5013337;28;20259;-59
2022/03/22 02:05:51;;;;;;;53.90;48.20;;;;;;;;;;5013335;28;20225;-60
2022/03/22 02:08:18;;;;;;;48.92;43.72;;;;;;;;;;5013188;28;20172;-60
2022/03/22 02:10:44;;;;;;;51.20;45.20;;;;;;;;;;5012805;28;20254;-59
2022/03/22 02:13:11;;;;;;;51.17;45.58;;;;;;;;;;5012889;28;20672;-60
2022/03/22 02:15:37;;;;;;;52.33;46.10;;;;;;;;;;5012790;28;20575;-59
2022/03/22 02:18:03;;;;;;;50.37;44.87;;;;;;;;;;5012981;28;20177;-60
2022/03/22 02:20:29;;;;;;;54.67;45.20;;;;;;;;;;5012791;28;20820;-60
2022/03/22 02:23:14;;;;;;;49.65;44.35;;;;;;;;;;5012933;28;20214;-59
2022/03/22 02:25:40;;;;;;;48.92;43.75;;;;;;;;;;5012803;28;20180;-60
2022/03/22 02:28:06;;;;;;;56.50;44.67;;;;;;;;;;5012671;28;20174;-60
2022/03/22 02:30:32;;;;;;;60.50;47.40;;;;;;;;;;5012503;28;20180;-58
2022/03/22 02:33:00;;;;;;;55.20;45.30;;;;;;;;;;5012401;28;20493;-60
2022/03/22 02:35:28;;;;;;;52.90;44.40;;;;;;;;;;5012224;28;20252;-60
2022/03/22 02:37:54;;;;;;;51.65;46.03;;;;;;;;;;5012602;28;20178;-61
2022/03/22 02:40:20;;;;;;;53.60;47.85;;;;;;;;;;5012315;28;20216;-60
2022/03/22 02:42:50;;;;;;;52.90;45.13;;;;;;;;;;5011937;28;20577;-59
2022/03/22 02:45:17;;;;;;;52.70;46.72;;;;;;;;;;5012383;28;20485;-59
2022/03/22 02:47:43;;;;;;;45.70;40.90;;;;;;;;;;5012536;28;20206;-59
2022/03/22 02:50:10;;;;;;;51.10;45.23;;;;;;;;;;5012378;28;20187;-60
2022/03/22 02:52:36;;;;;;;55.65;45.80;;;;;;;;;;5012286;28;20454;-61
2022/03/22 02:55:03;;;;;;;52.67;44.42;;;;;;;;;;5012343;28;20390;-60
2022/03/22 02:57:28;;;;;;;47.83;42.70;;;;;;;;;;5012232;28;20171;-59
2022/03/22 02:59:54;;;;;;;47.53;42.57;;;;;;;;;;5012147;28;20520;-59
2022/03/22 03:02:20;;;;;;;50.00;44.70;;;;;;;;;;5012018;28;20405;-59
2022/03/22 03:04:46;;;;;;;48.70;43.50;;;;;;;;;;5012052;28;20924;-59
2022/03/22 03:07:12;;;;;;;48.90;43.70;;;;;;;;;;5012103;28;20407;-60
2022/03/22 03:09:38;;;;;;;50.43;44.30;;;;;;;;;;5012025;28;20473;-60
2022/03/22 03:12:05;;;;;;;52.88;47.45;;;;;;;;;;5011590;28;20412;-59
2022/03/22 03:14:39;;;;;;;49.75;44.33;;;;;;;;;;5011755;28;20194;-60
2022/03/22 03:17:06;;;;;;;51.63;43.38;;;;;;;;;;5012137;28;20177;-60
2022/03/22 03:19:32;;;;;;;47.50;42.30;;;;;;;;;;5011946;28;20177;-60
2022/03/22 03:21:58;;;;;;;46.57;41.77;;;;;;;;;;5011717;28;20178;-60
2022/03/22 03:24:24;;;;;;;55.22;45.63;;;;;;;;;;5011880;28;20973;-60
2022/03/22 03:26:50;;;;;;;50.08;44.28;;;;;;;;;;5011682;28;20216;-60
2022/03/22 03:29:16;;;;;;;45.35;40.28;;;;;;;;;;5011830;28;20253;-60
2022/03/22 03:31:42;;;;;;;38.97;35.17;;;;;;;;;;5011554;28;20269;-60
2022/03/22 03:34:16;;;;;;;40.65;36.75;;;;;;;;;;5011775;28;20543;-60
2022/03/22 03:36:42;;;;;;;45.55;39.13;;;;;;;;;;5011739;28;20590;-60
2022/03/22 03:39:09;;;;;;;51.85;44.88;;;;;;;;;;5011595;28;20174;-60
2022/03/22 03:41:53;;;;;;;53.90;45.42;;;;;;;;;;5011422;28;20166;-59
2022/03/22 03:47:07;;;;;;;64.68;46.17;;;;;;;;;;5016198;28;20189;-60
2022/03/22 03:49:34;;;;;;;64.38;46.25;;;;;;;;;;5015699;28;20164;-60
2022/03/22 03:52:00;;;;;;;62.25;44.13;;;;;;;;;;5015325;28;20176;-60
2022/03/22 03:54:26;;;;;;;70.53;52.03;;;;;;;;;;5015584;28;20198;-59
2022/03/22 03:56:52;;;;;;;75.33;49.60;;;;;;;;;;5015654;28;20400;-60
2022/03/22 03:59:18;;;;;;;73.57;50.10;;;;;;;;;;5015561;28;20401;-59
2022/03/22 04:01:44;;;;;;;67.67;48.03;;;;;;;;;;5015285;28;20825;-59
2022/03/22 04:04:10;;;;;;;69.80;43.77;;;;;;;;;;5015333;28;20424;-60
2022/03/22 04:06:36;;;;;;;83.10;48.75;;;;;;;;;;5015381;28;20414;-59
2022/03/22 04:09:02;;;;;;;80.95;45.25;;;;;;;;;;5015355;28;20239;-60
2022/03/22 04:11:28;;;;;;;75.20;49.00;;;;;;;;;;5015051;28;20643;-59
2022/03/22 04:13:54;;;;;;;80.73;48.30;;;;;;;;;;5015143;28;20500;-58
2022/03/22 04:16:20;;;;;;;71.70;45.73;;;;;;;;;;5015258;28;20440;-60
2022/03/22 04:18:46;;;;;;;72.47;47.95;;;;;;;;;;5015154;28;20447;-60
2022/03/22 04:21:12;;;;;;;72.63;47.87;;;;;;;;;;5015143;28;20179;-59
2022/03/22 04:23:38;;;;;;;74.47;48.25;;;;;;;;;;5015385;28;20431;-60
2022/03/22 04:26:04;;;;;;;74.73;45.80;;;;;;;;;;5014987;28;20273;-58
2022/03/22 04:34:01;;;;;;;72.90;48.45;;;;;;;;;;5014701;28;20648;-59
2022/03/22 04:36:28;;;;;;;62.90;45.78;;;;;;;;;;5014981;28;20266;-57
2022/03/22 04:38:54;;;;;;;77.57;46.95;;;;;;;;;;5014789;28;20171;-58
2022/03/22 04:41:20;;;;;;;80.87;47.77;;;;;;;;;;5014503;28;20218;-60
2022/03/22 04:43:46;;;;;;;82.13;47.67;;;;;;;;;;5015101;28;20921;-58
2022/03/22 04:46:18;;;;;;;77.20;48.65;;;;;;;;;;5014651;28;20412;-56
2022/03/22 04:48:43;;;;;;;73.03;47.83;;;;;;;;;;5014713;28;20181;-57
2022/03/22 04:56:46;;;;;;;71.95;45.88;;;;;;;;;;5014093;28;20205;-58
2022/03/22 04:59:12;;;;;;;71.00;46.50;;;;;;;;;;5014433;28;20600;-55
2022/03/22 05:01:38;;;;;;;68.20;45.78;;;;;;;;;;5014157;28;20205;-56
2022/03/22 05:04:04;;;;;;;74.40;45.40;;;;;;;;;;5014224;28;20203;-58
2022/03/22 05:06:31;;;;;;;69.80;46.85;;;;;;;;;;5014305;28;20452;-58
2022/03/22 05:08:57;;;;;;;65.63;47.20;;;;;;;;;;5014067;28;20178;-60
2022/03/22 05:11:24;;;;;;;69.28;45.42;;;;;;;;;;5014146;28;20834;-58
2022/03/22 05:13:50;;;;;;;77.45;48.22;;;;;;;;;;5014161;28;20213;-59
2022/03/22 05:16:16;;;;;;;69.95;46.45;;;;;;;;;;5014135;28;20177;-59
2022/03/22 05:18:42;;;;;;;78.72;48.45;;;;;;;;;;5014094;28;20181;-59
2022/03/22 05:21:08;;;;;;;45.28;40.25;;;;;;;;;;5013867;28;20178;-60
2022/03/22 05:23:34;;;;;;;44.67;39.88;;;;;;;;;;5013827;28;20190;-60
2022/03/22 05:26:01;;;;;;;47.53;42.40;;;;;;;;;;5013613;28;20184;-60
2022/03/22 05:28:27;;;;;;;72.55;45.50;;;;;;;;;;5013737;28;20178;-60
2022/03/22 05:30:52;;;;;;;72.73;45.17;;;;;;;;;;5012392;28;20265;-59
2022/03/22 05:33:18;;;;;;;81.73;46.80;;;;;;;;;;5013178;28;20459;-58
2022/03/22 05:35:44;;;;;;;81.30;49.17;;;;;;;;;;5012430;28;20439;-59
2022/03/22 05:38:10;;;;;;;86.93;50.27;;;;;;;;;;5011576;28;20418;-59
2022/03/22 05:40:38;;;;;;;75.00;47.07;;;;;;;;;;5011545;28;20851;-59
2022/03/22 05:43:04;;;;;;;75.28;47.70;;;;;;;;;;5011647;28;20459;-60
2022/03/22 05:45:31;;;;;;;45.83;40.67;;;;;;;;;;5011764;28;20209;-60
2022/03/22 05:48:00;;;;;;;59.75;44.78;;;;;;;;;;5013058;28;20616;-60
2022/03/22 05:50:26;;;;;;;59.53;45.42;;;;;;;;;;5012649;28;20221;-60
2022/03/22 05:52:52;;;;;;;77.32;47.30;;;;;;;;;;5012566;28;20214;-60
2022/03/22 05:55:18;;;;;;;55.95;43.63;;;;;;;;;;5012563;28;20197;-60
2022/03/22 05:57:44;;;;;;;55.90;42.80;;;;;;;;;;5013130;28;20240;-58
2022/03/22 06:00:11;;;;;;;15.20;14.60;;;;;;;;;;5012980;28;20166;-57
2022/03/22 06:02:37;;;;;;;33.22;30.20;;;;;;;;;;5013184;28;20420;-55
2022/03/22 06:05:08;;;;;;;56.38;42.83;;;;;;;;;;5012943;28;20209;-59
2022/03/22 06:07:34;;;;;;;44.13;38.90;;;;;;;;;;5012486;28;20308;-59
2022/03/22 06:10:00;;;;;;;47.28;40.40;;;;;;;;;;5010190;28;20181;-57
2022/03/22 06:12:26;;;;;;;45.83;40.43;;;;;;;;;;5012618;28;20208;-58
2022/03/22 06:15:14;;;;;;;45.45;40.60;;;;;;;;;;5012950;28;20428;-59
2022/03/22 06:17:38;;;;;;;48.35;41.85;;;;;;;;;;5012837;28;20533;-60
2022/03/22 06:20:04;;;;;;;43.50;38.80;;;;;;;;;;5012882;28;20182;-60
2022/03/22 06:22:30;;;;;;;43.15;38.17;;;;;;;;;;5012691;28;20420;-60
2022/03/22 06:24:56;;;;;;;40.13;36.03;;;;;;;;;;5012686;28;20271;-58
2022/03/22 06:27:22;;;;;;;36.83;33.33;;;;;;;;;;5012813;28;20429;-59
2022/03/22 06:29:48;;;;;;;42.27;37.77;;;;;;;;;;5012769;28;20181;-59
2022/03/22 06:32:14;;;;;;;39.07;35.37;;;;;;;;;;5012593;28;20920;-59
2022/03/22 06:34:40;;;;;;;48.00;42.13;;;;;;;;;;5012276;28;20825;-59
2022/03/22 06:37:06;;;;;;;45.70;40.70;;;;;;;;;;5012486;28;20920;-57
2022/03/22 06:39:32;;;;;;;47.37;38.70;;;;;;;;;;5011468;28;20414;-58
2022/03/22 06:41:57;;;;;;;72.43;48.83;;;;;;;;;;5010636;28;20508;-60
2022/03/22 06:44:24;;;;;;;63.73;47.00;;;;;;;;;;5011356;28;20433;-59
2022/03/22 06:46:50;;;;;;;65.22;46.78;;;;;;;;;;5012343;28;20411;-60
2022/03/22 06:49:15;;;;;;;76.87;46.97;;;;;;;;;;5012043;28;20187;-59
2022/03/22 06:51:42;;;;;;;91.23;50.93;;;;;;;;;;5011805;28;20421;-59
2022/03/22 06:54:07;;;;;;;81.05;46.85;;;;;;;;;;5011865;28;20459;-60
2022/03/22 06:56:33;;;;;;;97.10;50.23;;;;;;;;;;5012133;28;20272;-59
2022/03/22 06:58:59;;;;;;;103.13;53.07;;;;;;;;;;5012200;28;20405;-61
2022/03/22 07:01:25;;;;;;;92.37;49.80;;;;;;;;;;5011794;28;20437;-59
2022/03/22 07:03:51;;;;;;;84.23;47.60;;;;;;;;;;5012065;28;20432;-60
2022/03/22 07:06:17;;;;;;;91.80;53.55;;;;;;;;;;5012029;28;20406;-60
2022/03/22 07:08:43;;;;;;;91.53;50.60;;;;;;;;;;5010693;28;20181;-60
2022/03/22 07:13:54;;;;;;;66.75;46.58;;;;;;;;;;5011816;28;20476;-59
2022/03/22 07:16:20;;;;;;;75.60;63.58;;;;;;;;;;5008916;28;20186;-61
2022/03/22 07:18:46;;;;;;;81.63;49.73;;;;;;;;;;5010845;28;20645;-60
2022/03/22 07:21:11;;;;;;;73.40;48.10;;;;;;;;;;5010875;28;20498;-60
2022/03/22 07:23:38;;;;;;;68.83;48.50;;;;;;;;;;5010772;28;20813;-58
2022/03/22 07:26:04;;;;;;;82.75;49.55;;;;;;;;;;5010678;28;20414;-61
2022/03/22 07:28:30;;;;;;;84.03;50.70;;;;;;;;;;5010813;28;20187;-60
2022/03/22 07:30:56;;;;;;;86.40;56.07;;;;;;;;;;5009840;28;20947;-61
2022/03/22 07:33:22;;;;;;;84.07;53.37;;;;;;;;;;5011510;28;20565;-61
2022/03/22 07:35:48;;;;;;;76.77;51.60;;;;;;;;;;5010864;28;20445;-59
2022/03/22 07:38:14;;;;;;;78.00;57.23;;;;;;;;;;5011694;28;20756;-60
2022/03/22 07:40:40;;;;;;;74.30;53.33;;;;;;;;;;5009941;28;20427;-60
2022/03/22 07:43:05;;;;;;;73.07;54.00;;;;;;;;;;5010688;28;20427;-59
2022/03/22 07:45:31;;;;;;;62.97;51.77;;;;;;;;;;5016702;28;20843;-61
2022/03/22 07:47:57;;;;;;;71.72;55.00;;;;;;;;;;5011488;28;20950;-60
2022/03/22 07:53:08;;;;;;;95.20;64.93;;;;;;;;;;5010093;28;20834;-58
2022/03/22 07:55:38;;;;;;;92.13;66.73;;;;;;;;;;5010056;28;20205;-61
2022/03/22 07:58:05;;;;;;;82.80;58.95;;;;;;;;;;5009713;28;20427;-61
2022/03/22 08:00:31;;;;;;;90.55;64.28;;;;;;;;;;5009605;28;20176;-61
2022/03/22 08:03:00;;;;;;;86.35;63.58;;;;;;;;;;5009276;28;20173;-61
2022/03/22 08:05:27;;;;;;;87.00;66.53;;;;;;;;;;5007744;28;20193;-58
2022/03/22 08:07:53;;;;;;;85.28;63.85;;;;;;;;;;5010849;28;20174;-59
2022/03/22 08:10:20;;;;;;;89.60;72.05;;;;;;;;;;5011230;28;20208;-61
2022/03/22 08:12:46;;;;;;;79.57;65.78;;;;;;;;;;5011314;28;20287;-61
2022/03/22 08:15:13;;;;;;;86.20;74.80;;;;;;;;;;5011605;28;20711;-60
2022/03/22 08:17:39;;;;;;;100.53;72.32;;;;;;;;;;5011504;28;20616;-61
2022/03/22 08:20:07;;;;;;;96.90;72.72;;;;;;;;;;5011326;28;20180;-58
2022/03/22 08:22:33;;;;;;;114.53;77.30;;;;;;;;;;5011201;28;20670;-61
2022/03/22 08:24:59;;;;;;;107.15;73.90;;;;;;;;;;5011192;28;20248;-60
2022/03/22 08:27:25;;;;;;;109.20;80.60;;;;;;;;;;5011355;28;20170;-59
2022/03/22 08:29:51;;;;;;;100.15;80.82;;;;;;;;;;5011324;28;20660;-60
2022/03/22 08:32:18;;;;;;;110.30;85.00;;;;;;;;;;5011160;28;20217;-61
2022/03/22 08:34:44;;;;;;;111.47;88.05;;;;;;;;;;5014732;28;20531;-59
2022/03/22 08:37:11;;;;;;;120.00;94.03;;;;;;;;;;5014815;28;20651;-63
2022/03/22 08:39:37;;;;;;;102.53;92.72;;;;;;;;;;5014811;28;20412;-62
2022/03/22 08:42:03;;;;;;;117.37;99.07;;;;;;;;;;5014480;28;20178;-61
2022/03/22 08:44:29;;;;;;;110.87;99.97;;;;;;;;;;5014708;28;20435;-62
2022/03/22 08:46:55;;;;;;;107.03;97.93;;;;;;;;;;5014702;28;20939;-62
2022/03/22 08:49:20;;;;;;;116.27;105.87;;;;;;;;;;5014532;28;20413;-61
2022/03/22 08:51:49;;;;;;;107.77;100.07;;;;;;;;;;5014305;28;20495;-61
2022/03/22 08:54:17;;;;;;;93.57;87.55;;;;;;;;;;5014398;28;20468;-62
2022/03/22 08:56:43;;;;;;;97.43;91.43;;;;;;;;;;5014548;28;20217;-62
2022/03/22 08:59:09;;;;;;;101.47;95.67;;;;;;;;;;5014396;28;20170;-62
2022/03/22 09:01:35;;;;;;;110.90;105.10;;;;;;;;;;5014170;28;20828;-62
2022/03/22 09:06:45;;;;;;;157.97;150.83;;;;;;;;;;5012507;28;20985;-62
2022/03/22 09:09:11;;;;;;;186.63;179.33;;;;;;;;;;5013563;28;20412;-60
2022/03/22 09:11:38;;;;;;;230.10;221.93;;;;;;;;;;5013868;28;20411;-61
2022/03/22 09:14:04;;;;;;;241.37;233.03;;;;;;;;;;5013884;28;20449;-62
2022/03/22 09:16:32;;;;;;;174.27;168.70;;;;;;;;;;5014121;28;20820;-61
2022/03/22 09:18:58;;;;;;;312.13;301.73;;;;;;;;;;5013521;28;20382;-61
2022/03/22 09:21:24;;;;;;;304.87;294.87;;;;;;;;;;5013578;28;20395;-61
2022/03/22 09:23:50;;;;;;;304.27;294.53;;;;;;;;;;5013886;28;20441;-62
2022/03/22 09:26:16;;;;;;;356.17;344.00;;;;;;;;;;5013997;28;20421;-61
2022/03/22 09:28:42;;;;;;;255.57;247.67;;;;;;;;;;5013696;28;20448;-61
2022/03/22 09:31:08;;;;;;;326.27;315.50;;;;;;;;;;5012970;28;20396;-61
2022/03/22 09:33:34;;;;;;;263.70;255.50;;;;;;;;;;5013219;28;20469;-61
2022/03/22 09:36:01;;;;;;;278.70;269.90;;;;;;;;;;5068056;23;21030;-64
2022/03/22 09:38:27;;;;;;;290.77;281.57;;;;;;;;;;5012903;28;20461;-64
2022/03/22 09:40:54;;;;;;;304.33;294.40;;;;;;;;;;5013157;28;20910;-64
2022/03/22 09:43:22;;;;;;;215.77;209.33;;;;;;;;;;5013199;28;20383;-64
2022/03/22 09:45:51;;;;;;;292.07;282.67;;;;;;;;;;5012603;28;20494;-64
2022/03/22 09:48:17;;;;;;;308.40;298.30;;;;;;;;;;5010932;28;20396;-64
2022/03/22 09:53:28;;;;;;;201.77;195.77;;;;;;;;;;5012446;28;20481;-65
2022/03/22 09:55:54;;;;;;;290.87;281.43;;;;;;;;;;5010383;28;20500;-64
2022/03/22 09:58:20;;;;;;;291.33;281.93;;;;;;;;;;5012217;28;20426;-64
2022/03/22 10:00:46;;;;;;;281.90;272.97;;;;;;;;;;5012665;28;20395;-64
2022/03/22 10:03:20;;;;;;;258.00;250.10;;;;;;;;;;5012949;28;20766;-61
2022/03/22 10:05:57;;;;;;;281.27;272.43;;;;;;;;;;5012586;28;20448;-64
2022/03/22 10:08:23;;;;;;;271.33;262.87;;;;;;;;;;5012936;28;20446;-64
2022/03/22 10:10:53;;;;;;;202.10;196.10;;;;;;;;;;5009593;28;20422;-64
2022/03/22 10:13:19;;;;;;;233.90;226.83;;;;;;;;;;5001148;28;20426;-65
2022/03/22 10:15:46;;;;;;;247.07;239.57;;;;;;;;;;5002219;28;20442;-64
2022/03/22 10:18:12;;;;;;;271.93;263.50;;;;;;;;;;5001350;28;20460;-63
2022/03/22 10:20:39;;;;;;;220.83;214.13;;;;;;;;;;4983786;28;20415;-65
2022/03/22 10:23:06;;;;;;;202.00;195.97;;;;;;;;;;5002670;28;20438;-65
2022/03/22 10:25:33;;;;;;;237.13;229.97;;;;;;;;;;5000515;28;20456;-64
2022/03/22 10:28:01;;;;;;;241.73;234.53;;;;;;;;;;5009232;28;20450;-64
2022/03/22 10:30:27;;;;;;;246.53;238.93;;;;;;;;;;5012053;28;20535;-65
2022/03/22 10:32:54;;;;;;;208.43;202.27;;;;;;;;;;5008947;28;20524;-64
2022/03/22 10:35:20;;;;;;;25.33;24.63;;;;;;;;;;5010560;28;20430;-65
2022/03/22 10:37:47;;;;;;;37.70;36.63;;;;;;;;;;5002814;28;20411;-64
2022/03/22 10:40:23;;;;;;;20.23;19.63;;;;;;;;;;5001682;28;20501;-64
2022/03/22 10:42:53;;;;;;;25.53;24.73;;;;;;;;;;5004589;28;20830;-64
2022/03/22 10:45:19;;;;;;;24.13;23.43;;;;;;;;;;5007789;28;20424;-63
2022/03/22 10:47:46;;;;;;;44.63;43.33;;;;;;;;;;5003499;28;20409;-63
2022/03/22 10:50:12;;;;;;;231.23;223.93;;;;;;;;;;5000166;28;20385;-62
2022/03/22 10:52:55;;;;;;;247.53;240.10;;;;;;;;;;5002203;28;20503;-63
2022/03/22 10:55:22;;;;;;;219.20;212.63;;;;;;;;;;4999758;28;20437;-64
2022/03/22 10:57:53;;;;;;;213.77;207.23;;;;;;;;;;5000922;28;20495;-64
2022/03/22 11:00:20;;;;;;;246.57;238.83;;;;;;;;;;5001698;28;20821;-63
2022/03/22 11:02:48;;;;;;;220.27;213.67;;;;;;;;;;5000685;28;20468;-64
2022/03/22 11:05:14;;;;;;;254.60;246.90;;;;;;;;;;5000064;28;20848;-64
2022/03/22 11:07:41;;;;;;;238.80;231.70;;;;;;;;;;5001923;28;20415;-62
2022/03/22 11:10:07;;;;;;;254.70;246.90;;;;;;;;;;4998232;28;20439;-64
2022/03/22 11:12:33;;;;;;;269.67;261.27;;;;;;;;;;5007809;28;20512;-63
2022/03/22 11:15:01;;;;;;;221.67;214.93;;;;;;;;;;5003640;28;20520;-63
2022/03/22 11:17:28;;;;;;;271.57;263.07;;;;;;;;;;5005988;28;20432;-65
2022/03/22 11:19:58;;;;;;;222.33;215.53;;;;;;;;;;5009363;28;20430;-64
2022/03/22 11:22:24;;;;;;;231.27;224.30;;;;;;;;;;4985306;28;20396;-63
2022/03/22 11:24:50;;;;;;;183.97;178.53;;;;;;;;;;5011662;28;20503;-64
2022/03/22 11:27:17;;;;;;;288.80;279.70;;;;;;;;;;5000911;28;20442;-62
2022/03/22 11:29:45;;;;;;;311.00;300.87;;;;;;;;;;5011398;28;20850;-62
2022/03/22 11:34:57;;;;;;;239.30;232.00;;;;;;;;;;4999465;28;21031;-63
2022/03/22 11:37:33;;;;;;;105.30;102.20;;;;;;;;;;5001689;28;20402;-63
2022/03/22 11:42:54;;;;;;;314.97;304.77;;;;;;;;;;4993124;28;20446;-62
2022/03/22 11:45:20;;;;;;;357.60;345.30;;;;;;;;;;4990764;28;20444;-63
2022/03/22 11:47:51;;;;;;;354.13;342.03;;;;;;;;;;4992017;28;20410;-63
2022/03/22 11:50:19;;;;;;;314.10;303.57;;;;;;;;;;4999349;28;20835;-63
2022/03/22 11:52:47;;;;;;;362.33;349.73;;;;;;;;;;5008936;28;20435;-62
2022/03/22 11:55:13;;;;;;;272.20;263.70;;;;;;;;;;5004832;28;21156;-62
2022/03/22 11:57:46;;;;;;;383.40;369.60;;;;;;;;;;4999600;28;20437;-62
2022/03/22 12:00:13;;;;;;;295.03;285.40;;;;;;;;;;4999768;28;20388;-62
2022/03/22 12:02:41;;;;;;;364.53;352.00;;;;;;;;;;5001409;28;20441;-62
2022/03/22 12:05:08;;;;;;;17.43;16.97;;;;;;;;;;5000291;28;20444;-62
2022/03/22 12:07:38;;;;;;;60.70;58.87;;;;;;;;;;5003036;28;20395;-63
2022/03/22 12:10:14;;;;;;;84.40;81.87;;;;;;;;;;5003786;28;20751;-62
2022/03/22 12:12:40;;;;;;;47.10;45.67;;;;;;;;;;5003099;28;20474;-62
2022/03/22 12:15:08;;;;;;;53.60;51.93;;;;;;;;;;5004356;28;20407;-62
2022/03/22 12:17:34;;;;;;;79.47;77.10;;;;;;;;;;5004850;28;20398;-62
2022/03/22 12:20:01;;;;;;;80.00;77.57;;;;;;;;;;5003252;28;20415;-62
2022/03/22 12:22:28;;;;;;;126.83;123.07;;;;;;;;;;5003957;28;20388;-62
2022/03/22 12:24:56;;;;;;;385.07;371.37;;;;;;;;;;5004598;28;20470;-62
2022/03/22 12:27:23;;;;;;;403.10;388.03;;;;;;;;;;5003282;28;20388;-62
2022/03/22 12:29:49;;;;;;;600.33;572.87;;;;;;;;;;5004505;28;20416;-63
2022/03/22 12:32:20;;;;;;;491.57;472.13;;;;;;;;;;5002522;28;20413;-62
2022/03/22 12:34:47;;;;;;;566.20;540.50;;;;;;;;;;5003472;28;20967;-63
2022/03/22 12:37:14;;;;;;;456.23;437.40;;;;;;;;;;5003393;28;20412;-65
2022/03/22 12:39:41;;;;;;;360.57;346.30;;;;;;;;;;5004130;28;20459;-61
2022/03/22 12:42:08;;;;;;;442.07;422.37;;;;;;;;;;4985841;28;20808;-62
2022/03/22 12:44:35;;;;;;;426.13;406.93;;;;;;;;;;5003151;28;20890;-63
2022/03/22 12:47:01;;;;;;;389.03;370.70;;;;;;;;;;5002614;28;20421;-63
2022/03/22 12:49:27;;;;;;;390.47;371.63;;;;;;;;;;5004016;28;20495;-61
2022/03/22 12:51:53;;;;;;;436.90;415.00;;;;;;;;;;5004115;28;20688;-61
2022/03/22 12:54:20;;;;;;;444.00;421.40;;;;;;;;;;5001677;28;20464;-61
2022/03/22 12:56:47;;;;;;;422.73;400.63;;;;;;;;;;5002674;28;20416;-61
2022/03/22 12:59:20;;;;;;;414.60;393.10;;;;;;;;;;5002410;28;20401;-61
2022/03/22 13:01:46;;;;;;;383.53;365.40;;;;;;;;;;5003815;28;21235;-61
2022/03/22 13:04:12;;;;;;;413.20;391.77;;;;;;;;;;5003128;28;20440;-61
2022/03/22 13:06:38;;;;;;;414.67;392.13;;;;;;;;;;5001461;28;21034;-64
2022/03/22 13:11:48;;;;;;;373.77;355.20;;;;;;;;;;5002976;28;20405;-63
2022/03/22 13:16:59;;;;;;;361.30;343.70;;;;;;;;;;5004156;28;20772;-63
2022/03/22 13:19:32;;;;;;;382.47;363.67;;;;;;;;;;5004020;28;20405;-64
2022/03/22 13:21:58;;;;;;;376.53;357.93;;;;;;;;;;5001568;28;21066;-63
2022/03/22 13:24:26;;;;;;;351.30;332.80;;;;;;;;;;4985910;28;20506;-63
2022/03/22 13:27:03;;;;;;;364.33;346.17;;;;;;;;;;5003091;28;20471;-63
2022/03/22 13:29:36;;;;;;;355.40;337.00;;;;;;;;;;5002263;28;20432;-63
2022/03/22 13:32:04;;;;;;;373.03;354.07;;;;;;;;;;5001310;28;20409;-63
2022/03/22 13:34:31;;;;;;;354.43;337.23;;;;;;;;;;5001929;28;20545;-63
2022/03/22 13:37:23;;;;;;;376.03;356.50;;;;;;;;;;5000601;28;21047;-62
2022/03/22 13:39:51;;;;;;;368.10;349.10;;;;;;;;;;5008066;28;20761;-63
2022/03/22 13:42:17;;;;;;;357.10;338.20;;;;;;;;;;5009453;28;20428;-63
2022/03/22 13:44:55;;;;;;;361.30;342.33;;;;;;;;;;5000813;28;20964;-62
2022/03/22 13:47:25;;;;;;;357.17;339.17;;;;;;;;;;5001173;28;20409;-62
2022/03/22 13:49:52;;;;;;;347.13;329.53;;;;;;;;;;5001358;28;20925;-63
2022/03/22 13:52:24;;;;;;;301.17;287.40;;;;;;;;;;5001248;28;20405;-62
2022/03/22 13:54:53;;;;;;;308.63;294.33;;;;;;;;;;5001310;28;20455;-63
2022/03/22 13:57:19;;;;;;;301.07;287.27;;;;;;;;;;5006355;28;20885;-63
2022/03/22 13:59:45;;;;;;;286.67;273.40;;;;;;;;;;5005666;28;21091;-63
2022/03/22 14:02:11;;;;;;;302.63;288.53;;;;;;;;;;5000070;28;20412;-63
2022/03/22 14:04:37;;;;;;;302.90;288.77;;;;;;;;;;5002665;28;20413;-63
2022/03/22 14:07:04;;;;;;;305.40;291.23;;;;;;;;;;5003449;28;20831;-63
2022/03/22 14:09:31;;;;;;;302.87;287.93;;;;;;;;;;5001573;28;20409;-63
2022/03/22 14:11:57;;;;;;;329.93;313.27;;;;;;;;;;5003456;28;20512;-62
2022/03/22 14:14:23;;;;;;;337.97;320.50;;;;;;;;;;5003339;28;20444;-62
2022/03/22 14:16:49;;;;;;;328.00;310.93;;;;;;;;;;5000005;28;20503;-63
2022/03/22 14:19:15;;;;;;;301.33;285.50;;;;;;;;;;5001971;28;20406;-63
2022/03/22 14:21:41;;;;;;;311.40;294.53;;;;;;;;;;5000023;28;20414;-62
2022/03/22 14:24:07;;;;;;;324.27;307.17;;;;;;;;;;5001841;28;20411;-62
2022/03/22 14:26:33;;;;;;;285.20;271.37;;;;;;;;;;5001580;28;20433;-63
2022/03/22 14:28:59;;;;;;;331.13;312.33;;;;;;;;;;5001821;28;20455;-63
2022/03/22 14:31:25;;;;;;;189.20;181.30;;;;;;;;;;5001992;28;20444;-63
2022/03/22 14:33:51;;;;;;;312.53;294.70;;;;;;;;;;5000130;28;20472;-63
2022/03/22 14:36:17;;;;;;;282.47;267.93;;;;;;;;;;5001770;28;20476;-63
2022/03/22 14:38:43;;;;;;;260.23;248.13;;;;;;;;;;5000198;28;20933;-63
2022/03/22 14:41:27;;;;;;;294.50;278.73;;;;;;;;;;5001458;28;20416;-63
2022/03/22 14:43:54;;;;;;;315.03;298.27;;;;;;;;;;5001329;28;20699;-63
2022/03/22 14:46:21;;;;;;;301.30;284.77;;;;;;;;;;4999863;28;21089;-61